Time;durP1;ratioP1;P1;durP2;ratioP2;P2;SDS_P1;SDS_P2;PMS_P1;PMS_P2;Temp;Humidity;BMP_temperature;BMP_pressure;BME280_temperature;BME280_humidity;BME280_pressure;Samples;Min_cycle;Max_cycle;Signal;HPM_P1;HPM_P2
2024/02/10 00:00:55;;;;;;;4.35;0.60;;;;;;;6.50;100.00;96952.69;4998090;28;20027;-95
2024/02/10 00:03:22;;;;;;;3.90;0.35;;;;;;;6.51;100.00;96954.28;4996128;28;20060;-96
2024/02/10 00:05:48;;;;;;;2.25;0.57;;;;;;;6.40;100.00;96939.97;4997623;28;20026;-96
2024/02/10 00:08:14;;;;;;;2.17;0.47;;;;;;;6.42;100.00;96938.88;4983959;28;20031;-95
2024/02/10 00:10:41;;;;;;;3.45;0.45;;;;;;;6.42;100.00;96944.00;5003513;28;20030;-95
2024/02/10 00:13:07;;;;;;;2.10;0.40;;;;;;;6.46;100.00;96946.25;5004867;28;20038;-95
2024/02/10 00:15:33;;;;;;;2.25;0.55;;;;;;;6.42;100.00;96933.75;5003025;28;20023;-96
2024/02/10 00:17:58;;;;;;;1.90;0.57;;;;;;;6.41;100.00;96944.94;4994029;28;20081;-95
2024/02/10 00:20:25;;;;;;;2.38;0.40;;;;;;;6.37;100.00;96945.38;4971719;28;20041;-95
2024/02/10 00:22:52;;;;;;;2.28;0.52;;;;;;;6.37;100.00;96947.94;5008958;28;20030;-95
2024/02/10 00:25:18;;;;;;;2.67;0.40;;;;;;;6.36;100.00;96951.44;5011726;28;20029;-95
2024/02/10 00:27:46;;;;;;;1.33;0.50;;;;;;;6.32;100.00;96945.84;5011344;28;20029;-95
2024/02/10 00:30:16;;;;;;;4.57;0.55;;;;;;;6.21;100.00;96953.72;5007989;28;20089;-96
2024/02/10 00:32:42;;;;;;;4.18;0.70;;;;;;;6.33;100.00;96957.66;5005083;28;20491;-95
2024/02/10 00:35:08;;;;;;;3.22;0.60;;;;;;;6.39;100.00;96962.22;5010055;28;20034;-96
2024/02/10 00:37:34;;;;;;;1.40;0.50;;;;;;;6.38;100.00;96955.47;5005314;28;20030;-96
2024/02/10 00:40:01;;;;;;;2.35;0.95;;;;;;;6.14;100.00;96968.84;5004757;28;20053;-94
2024/02/10 00:42:28;;;;;;;5.80;1.20;;;;;;;6.14;100.00;96965.50;4988772;28;20026;-96
2024/02/10 00:44:59;;;;;;;3.00;0.90;;;;;;;6.12;100.00;96970.78;5007221;28;20072;-95
2024/02/10 00:47:28;;;;;;;2.80;0.65;;;;;;;6.11;100.00;96968.34;5008857;28;20045;-95
2024/02/10 00:49:57;;;;;;;3.75;0.80;;;;;;;6.08;100.00;96968.66;5005580;28;20030;-95
2024/02/10 00:52:23;;;;;;;0.85;0.30;;;;;;;5.99;100.00;96968.56;5010160;28;20034;-96
2024/02/10 00:54:49;;;;;;;1.30;0.40;;;;;;;5.82;100.00;96971.88;5009390;28;20168;-96
2024/02/10 00:57:15;;;;;;;2.15;0.40;;;;;;;5.90;100.00;96982.22;4994294;28;20019;-95
2024/02/10 00:59:41;;;;;;;2.25;0.50;;;;;;;5.84;100.00;96967.41;4989223;28;20035;-95
2024/02/10 01:02:09;;;;;;;3.25;0.45;;;;;;;5.72;100.00;96978.78;4989819;28;20025;-95
2024/02/10 01:04:35;;;;;;;1.90;0.50;;;;;;;5.70;100.00;96984.03;4996556;28;20035;-95
2024/02/10 01:07:01;;;;;;;1.50;0.55;;;;;;;5.64;100.00;96976.97;5006630;28;20018;-94
2024/02/10 01:09:29;;;;;;;3.50;0.60;;;;;;;5.75;100.00;96993.84;5002798;28;20061;-95
2024/02/10 01:11:55;;;;;;;2.60;1.05;;;;;;;5.72;100.00;96982.16;5004300;28;20021;-94
2024/02/10 01:14:20;;;;;;;3.28;0.50;;;;;;;5.77;100.00;96984.28;5000052;28;20130;-95
2024/02/10 01:16:46;;;;;;;2.40;0.60;;;;;;;5.75;100.00;96981.06;4992115;28;20495;-94
2024/02/10 01:19:12;;;;;;;2.70;0.73;;;;;;;5.79;100.00;96985.75;4996626;28;20039;-95
2024/02/10 01:21:39;;;;;;;3.30;1.33;;;;;;;5.85;100.00;96994.59;4982713;28;20027;-94
2024/02/10 01:24:06;;;;;;;9.23;1.73;;;;;;;5.84;100.00;96989.66;4981323;28;20058;-95
2024/02/10 01:26:35;;;;;;;3.55;1.70;;;;;;;5.88;100.00;96994.34;4997828;28;20088;-94
2024/02/10 01:29:05;;;;;;;4.55;1.45;;;;;;;5.80;100.00;97017.25;4982565;28;20034;-95
2024/02/10 01:31:31;;;;;;;5.95;1.08;;;;;;;5.89;100.00;97016.41;4987414;28;20113;-93
2024/02/10 01:33:57;;;;;;;3.72;1.40;;;;;;;5.90;100.00;97007.81;4995256;28;20505;-95
2024/02/10 01:36:22;;;;;;;4.07;1.40;;;;;;;6.06;100.00;97014.88;4996265;28;20046;-95
2024/02/10 01:38:49;;;;;;;3.15;1.10;;;;;;;6.06;100.00;97006.38;4979014;28;20038;-94
2024/02/10 01:41:15;;;;;;;4.30;1.65;;;;;;;6.15;100.00;97010.66;4977515;28;20397;-94
2024/02/10 01:43:42;;;;;;;7.80;1.60;;;;;;;6.12;100.00;96991.25;4996526;28;20019;-96
2024/02/10 01:46:11;;;;;;;4.25;1.67;;;;;;;6.19;100.00;96984.63;4996452;28;20026;-95
2024/02/10 01:48:37;;;;;;;2.92;1.83;;;;;;;6.19;100.00;96981.22;4990641;28;20098;-95
2024/02/10 01:51:02;;;;;;;4.03;2.30;;;;;;;6.22;100.00;96975.84;4989870;28;20057;-95
2024/02/10 01:53:28;;;;;;;4.82;2.22;;;;;;;6.25;100.00;96990.91;5001709;28;20034;-96
2024/02/10 01:55:54;;;;;;;4.38;1.98;;;;;;;6.35;100.00;96991.63;4992213;28;20019;-95
2024/02/10 01:58:22;;;;;;;6.28;2.17;;;;;;;6.28;100.00;96988.03;4999430;28;20259;-95
2024/02/10 02:00:48;;;;;;;5.20;2.88;;;;;;;6.22;100.00;96993.75;5005415;28;20026;-95
2024/02/10 02:03:15;;;;;;;2.22;2.03;;;;;;;6.24;100.00;96999.50;5005110;28;20069;-95
2024/02/10 02:05:41;;;;;;;3.13;1.95;;;;;;;6.23;100.00;97000.47;5004206;28;20373;-96
2024/02/10 02:08:08;;;;;;;3.72;1.80;;;;;;;6.20;100.00;96991.34;4987055;28;20027;-95
2024/02/10 02:10:34;;;;;;;7.82;2.50;;;;;;;6.31;100.00;96989.50;4982117;28;20396;-96
2024/02/10 02:13:00;;;;;;;3.60;2.20;;;;;;;6.27;100.00;96978.75;4985260;28;20095;-96
2024/02/10 02:15:30;;;;;;;5.93;2.35;;;;;;;6.32;100.00;96986.81;4986721;28;20043;-95
2024/02/10 02:17:57;;;;;;;4.40;1.88;;;;;;;6.21;100.00;96990.38;4997622;28;20029;-95
2024/02/10 02:20:24;;;;;;;8.20;2.22;;;;;;;6.29;100.00;97001.66;5005355;28;20480;-96
2024/02/10 02:22:53;;;;;;;7.78;2.65;;;;;;;6.31;100.00;97005.66;4986611;28;20034;-95
2024/02/10 02:25:20;;;;;;;5.88;2.90;;;;;;;6.29;100.00;96999.91;4997642;28;20045;-95
2024/02/10 02:27:46;;;;;;;5.07;3.17;;;;;;;6.24;100.00;97002.06;5009498;28;20022;-96
2024/02/10 02:30:12;;;;;;;8.30;4.70;;;;;;;6.30;100.00;97003.28;5003175;28;20051;-96
2024/02/10 02:32:38;;;;;;;7.05;3.13;;;;;;;6.37;100.00;97004.31;4997770;28;20034;-95
2024/02/10 02:35:09;;;;;;;5.50;2.97;;;;;;;6.41;100.00;97011.56;5003536;28;20058;-96
2024/02/10 02:37:41;;;;;;;4.07;2.83;;;;;;;6.34;100.00;97005.41;5003365;28;20189;-95
2024/02/10 02:40:09;;;;;;;4.72;3.30;;;;;;;6.35;100.00;97016.44;5002702;28;20019;-96
2024/02/10 02:42:35;;;;;;;5.15;2.85;;;;;;;6.40;100.00;97012.47;4986500;28;20027;-96
2024/02/10 02:45:05;;;;;;;8.07;2.80;;;;;;;6.38;100.00;97009.25;4987068;28;20061;-96
2024/02/10 02:47:36;;;;;;;5.93;2.65;;;;;;;6.42;100.00;97002.91;4995761;28;20042;-96
2024/02/10 02:50:02;;;;;;;9.25;2.95;;;;;;;6.46;100.00;97007.72;5005792;28;20046;-95
2024/02/10 02:52:30;;;;;;;5.55;2.97;;;;;;;6.38;100.00;97001.56;5005628;28;20098;-95
2024/02/10 02:54:59;;;;;;;4.47;2.92;;;;;;;6.52;100.00;97009.72;5006013;28;20022;-95
2024/02/10 02:57:25;;;;;;;4.05;2.80;;;;;;;6.42;100.00;96995.22;5006335;28;20041;-95
2024/02/10 02:59:52;;;;;;;5.93;2.90;;;;;;;6.44;100.00;97000.22;5006977;28;20031;-95
2024/02/10 03:02:18;;;;;;;4.13;2.83;;;;;;;6.43;100.00;96991.69;5003549;28;20034;-96
2024/02/10 03:04:44;;;;;;;3.88;2.60;;;;;;;6.45;100.00;96996.69;5000220;28;20090;-95
2024/02/10 03:07:15;;;;;;;3.38;2.30;;;;;;;6.51;100.00;96990.16;5005633;28;20045;-95
2024/02/10 03:09:45;;;;;;;7.70;2.92;;;;;;;6.43;100.00;96994.25;5006434;28;20030;-95
2024/02/10 03:12:11;;;;;;;4.18;2.50;;;;;;;6.54;100.00;96995.00;5002705;28;20039;-95
2024/02/10 03:14:39;;;;;;;6.43;2.90;;;;;;;6.51;100.00;97011.47;4986806;28;20037;-95
2024/02/10 03:17:07;;;;;;;10.00;3.50;;;;;;;6.60;100.00;97020.03;4993980;28;20033;-95
2024/02/10 03:19:36;;;;;;;6.20;3.70;;;;;;;6.48;100.00;97026.31;4993039;28;20054;-95
2024/02/10 03:22:03;;;;;;;6.95;2.58;;;;;;;6.38;100.00;97014.38;5008141;28;20041;-94
2024/02/10 03:24:31;;;;;;;9.35;2.95;;;;;;;6.45;100.00;97011.25;5006335;28;20030;-95
2024/02/10 03:26:56;;;;;;;4.53;2.72;;;;;;;6.48;100.00;97010.94;5000370;28;20121;-95
2024/02/10 03:29:22;;;;;;;5.95;2.38;;;;;;;6.51;100.00;97010.66;5001000;28;20061;-95
2024/02/10 03:31:47;;;;;;;4.78;2.15;;;;;;;6.57;100.00;97010.88;5000093;28;20018;-95
2024/02/10 03:34:13;;;;;;;5.07;2.55;;;;;;;6.52;100.00;97015.63;4999928;28;20029;-94
2024/02/10 03:36:38;;;;;;;8.43;3.13;;;;;;;6.45;100.00;97006.13;4994697;28;20070;-95
2024/02/10 03:39:07;;;;;;;10.40;4.75;;;;;;;6.61;100.00;97021.66;4992799;28;20034;-94
2024/02/10 03:41:33;;;;;;;4.13;2.30;;;;;;;6.57;100.00;97017.75;5004118;28;20061;-96
2024/02/10 03:44:00;;;;;;;6.63;2.65;;;;;;;6.58;100.00;97012.50;5001714;28;20026;-95
2024/02/10 03:46:26;;;;;;;4.30;2.70;;;;;;;6.63;100.00;97004.34;5000430;28;20046;-95
2024/02/10 03:48:52;;;;;;;6.78;2.50;;;;;;;6.69;100.00;97003.78;5002063;28;20033;-96
2024/02/10 03:51:18;;;;;;;4.05;2.38;;;;;;;6.70;100.00;97013.06;5008611;28;20062;-96
2024/02/10 03:53:44;;;;;;;4.55;2.22;;;;;;;6.71;100.00;97009.56;5008227;28;20046;-96
2024/02/10 03:56:09;;;;;;;10.77;2.70;;;;;;;6.65;100.00;97017.81;5004048;28;20030;-95
2024/02/10 03:58:40;;;;;;;4.82;2.45;;;;;;;6.63;100.00;97015.44;5025038;28;20586;-95
2024/02/10 04:01:13;;;;;;;3.58;2.35;;;;;;;6.64;100.00;96996.53;5012311;28;20022;-95
2024/02/10 04:03:39;;;;;;;3.72;2.40;;;;;;;6.73;100.00;97007.66;5011198;28;20041;-95
2024/02/10 04:06:06;;;;;;;5.70;2.55;;;;;;;6.80;100.00;97015.53;5001177;28;20098;-95
2024/02/10 04:08:34;;;;;;;5.60;2.35;;;;;;;6.66;100.00;96998.94;5009616;28;20094;-95
2024/02/10 04:11:05;;;;;;;4.63;2.03;;;;;;;6.79;100.00;97014.72;5002942;28;20094;-96
2024/02/10 04:13:33;;;;;;;2.42;1.70;;;;;;;6.70;100.00;96996.88;4993058;28;20127;-96
2024/02/10 04:15:59;;;;;;;6.43;1.98;;;;;;;6.69;100.00;96997.84;4993718;28;20047;-95
2024/02/10 04:18:27;;;;;;;5.05;1.85;;;;;;;6.66;100.00;97004.06;5011118;28;20069;-95
2024/02/10 04:20:55;;;;;;;5.32;1.95;;;;;;;6.70;100.00;97007.94;5013529;28;20105;-96
2024/02/10 04:23:28;;;;;;;5.25;1.92;;;;;;;6.62;100.00;97018.91;4999516;28;20090;-96
2024/02/10 04:25:54;;;;;;;3.92;1.80;;;;;;;6.57;100.00;97017.75;5013767;28;20022;-95
2024/02/10 04:28:20;;;;;;;4.65;2.03;;;;;;;6.55;100.00;97012.78;5010537;28;20046;-95
2024/02/10 04:31:13;;;;;;;3.70;1.65;;;;;;;6.57;100.00;97018.56;5011853;28;20030;-96
2024/02/10 04:36:15;;;;;;;4.55;1.13;;;;;;;6.65;100.00;97023.75;5075908;23;20055;-96
2024/02/10 04:38:44;;;;;;;3.40;1.38;;;;;;;6.57;100.00;97023.69;4960866;29;20037;-96
2024/02/10 04:41:09;;;;;;;3.13;1.42;;;;;;;6.60;100.00;97020.03;4960317;29;20054;-96
2024/02/10 04:43:36;;;;;;;3.92;1.63;;;;;;;6.60;100.00;97020.03;4977732;29;20027;-95
2024/02/10 04:46:01;;;;;;;5.85;1.63;;;;;;;6.57;100.00;97020.31;4960439;29;20097;-96
2024/02/10 04:48:27;;;;;;;5.60;1.48;;;;;;;6.70;100.00;97025.06;4977563;28;20032;-95
2024/02/10 04:50:56;;;;;;;3.40;1.50;;;;;;;6.59;100.00;97028.66;4958856;29;20035;-96
2024/02/10 04:53:25;;;;;;;2.40;1.10;;;;;;;6.35;100.00;97021.56;4945639;28;20104;-96
2024/02/10 04:55:51;;;;;;;8.02;1.40;;;;;;;6.25;100.00;97021.63;4955134;29;20022;-96
2024/02/10 05:00:51;;;;;;;5.03;1.70;;;;;;;6.54;100.00;97031.66;5218753;23;20039;-95
2024/02/10 05:03:17;;;;;;;5.32;1.70;;;;;;;6.53;100.00;97029.25;4993859;28;20078;-95
2024/02/10 05:05:43;;;;;;;2.95;1.25;;;;;;;6.51;100.00;97036.28;4997730;28;20099;-96
2024/02/10 05:08:12;;;;;;;4.30;1.30;;;;;;;6.57;100.00;97040.81;4998973;28;20023;-95
2024/02/10 05:10:39;;;;;;;9.27;1.70;;;;;;;6.66;100.00;97050.19;4968433;28;20043;-95
2024/02/10 05:13:04;;;;;;;2.92;1.17;;;;;;;6.65;100.00;97044.25;4955705;29;20032;-95
2024/02/10 05:15:31;;;;;;;5.55;1.67;;;;;;;6.65;100.00;97043.44;4943337;29;20136;-95
2024/02/10 05:17:58;;;;;;;4.70;1.27;;;;;;;6.65;100.00;97044.25;4943773;29;20027;-96
2024/02/10 05:20:26;;;;;;;1.35;0.85;;;;;;;6.71;100.00;97063.38;4960141;29;20095;-96
2024/02/10 05:22:54;;;;;;;4.40;1.17;;;;;;;6.61;100.00;97047.28;4943293;28;20032;-96
2024/02/10 05:25:22;;;;;;;1.98;1.15;;;;;;;6.57;100.00;97056.19;4974166;29;20007;-96
2024/02/10 05:27:49;;;;;;;2.20;1.30;;;;;;;6.56;100.00;97060.53;4970351;28;20105;-95
2024/02/10 05:30:24;;;;;;;1.63;1.23;;;;;;;6.56;100.00;97062.25;4998758;28;20073;-96
2024/02/10 05:32:58;;;;;;;3.42;1.10;;;;;;;6.56;100.00;97060.53;4981691;28;20023;-95
2024/02/10 05:35:26;;;;;;;5.72;1.50;;;;;;;6.68;100.00;97080.78;4983371;28;20031;-95
2024/02/10 05:37:53;;;;;;;5.00;1.40;;;;;;;6.66;100.00;97080.94;4981097;28;20022;-95
2024/02/10 05:40:20;;;;;;;5.32;1.77;;;;;;;6.58;100.00;97068.03;4970414;28;20027;-95
2024/02/10 05:42:49;;;;;;;4.05;1.45;;;;;;;6.58;100.00;97073.16;4983524;28;20007;-95
2024/02/10 05:45:17;;;;;;;5.75;1.20;;;;;;;6.51;100.00;97061.88;4959995;29;20023;-96
2024/02/10 05:47:50;;;;;;;2.90;1.48;;;;;;;6.54;100.00;97072.66;4957107;29;20027;-95
2024/02/10 05:50:19;;;;;;;5.22;1.55;;;;;;;6.53;100.00;97075.34;4958589;29;20020;-95
2024/02/10 05:52:48;;;;;;;5.47;1.88;;;;;;;6.53;100.00;97070.25;4959231;29;20065;-95
2024/02/10 05:55:25;;;;;;;3.10;1.50;;;;;;;6.57;100.00;97080.06;4977254;29;20035;-95
2024/02/10 05:57:55;;;;;;;6.20;1.65;;;;;;;6.51;100.00;97077.25;4974183;28;20053;-96
2024/02/10 06:00:22;;;;;;;9.45;1.50;;;;;;;6.52;100.00;97089.13;4996844;28;20030;-96
2024/02/10 06:02:48;;;;;;;4.95;1.50;;;;;;;6.29;100.00;97076.75;4980003;28;20087;-95
2024/02/10 06:05:14;;;;;;;7.78;1.45;;;;;;;6.32;100.00;97073.09;4978433;29;20003;-95
2024/02/10 06:07:43;;;;;;;5.63;1.63;;;;;;;6.38;100.00;97069.94;4978233;29;20028;-96
2024/02/10 06:10:12;;;;;;;11.15;1.77;;;;;;;6.29;100.00;97069.06;4961620;29;20023;-95
2024/02/10 06:12:45;;;;;;;4.55;1.60;;;;;;;6.32;100.00;97067.97;4962007;29;20068;-95
2024/02/10 06:15:11;;;;;;;11.20;1.77;;;;;;;6.44;100.00;97092.44;4978437;28;20023;-96
2024/02/10 06:17:41;;;;;;;3.88;1.90;;;;;;;6.38;100.00;97077.63;4970008;28;20042;-95
2024/02/10 06:20:12;;;;;;;2.13;1.48;;;;;;;6.37;100.00;97076.03;4979846;28;20014;-96
2024/02/10 06:22:38;;;;;;;7.53;1.55;;;;;;;6.43;100.00;97090.78;4980419;28;20027;-96
2024/02/10 06:25:04;;;;;;;8.07;1.70;;;;;;;6.43;100.00;97076.22;4969844;29;20011;-96
2024/02/10 06:27:31;;;;;;;2.42;1.33;;;;;;;6.39;100.00;97069.81;4977131;28;20027;-95
2024/02/10 06:30:00;;;;;;;4.88;1.48;;;;;;;6.34;100.00;97072.00;4967467;28;20300;-95
2024/02/10 06:32:26;;;;;;;3.85;1.48;;;;;;;6.37;100.00;97083.69;4978350;28;20034;-95
2024/02/10 06:34:53;;;;;;;5.03;1.13;;;;;;;6.46;100.00;97082.00;4967067;28;20027;-95
2024/02/10 06:37:25;;;;;;;1.73;1.00;;;;;;;6.42;100.00;97072.06;4977307;28;20035;-95
2024/02/10 06:39:50;;;;;;;6.25;1.00;;;;;;;6.36;100.00;97082.88;4978361;29;20091;-95
2024/02/10 06:42:17;;;;;;;5.03;1.20;;;;;;;6.29;100.00;97081.88;4979350;29;20015;-94
2024/02/10 06:44:43;;;;;;;10.52;1.77;;;;;;;6.19;100.00;97084.47;4962893;29;20023;-95
2024/02/10 06:47:08;;;;;;;5.68;1.70;;;;;;;6.21;100.00;97094.56;4961919;29;20013;-95
2024/02/10 06:49:34;;;;;;;2.92;1.02;;;;;;;6.33;100.00;97106.22;4971047;28;20089;-96
2024/02/10 06:52:03;;;;;;;5.47;1.40;;;;;;;6.24;100.00;97091.69;4998212;28;20049;-94
2024/02/10 06:54:29;;;;;;;3.20;1.40;;;;;;;6.16;100.00;97096.75;4979203;28;20023;-95
2024/02/10 06:56:57;;;;;;;2.70;1.13;;;;;;;6.18;100.00;97102.53;4969687;28;20039;-94
2024/02/10 06:59:25;;;;;;;8.48;1.50;;;;;;;6.19;100.00;97116.94;4994321;28;20023;-95
2024/02/10 07:01:54;;;;;;;4.22;1.10;;;;;;;6.17;100.00;97111.97;4971572;28;20035;-95
2024/02/10 07:04:21;;;;;;;2.17;1.13;;;;;;;6.09;100.00;97113.63;4958691;28;20022;-95
2024/02/10 07:06:49;;;;;;;5.47;1.95;;;;;;;6.18;100.00;97116.13;4974435;28;20083;-95
2024/02/10 07:09:15;;;;;;;5.68;1.15;;;;;;;6.18;100.00;97117.91;4972518;28;20042;-95
2024/02/10 07:11:40;;;;;;;4.50;1.48;;;;;;;6.10;100.00;97113.50;4976249;28;20034;-95
2024/02/10 07:14:08;;;;;;;7.38;1.90;;;;;;;6.16;100.00;97119.78;4958339;29;20027;-95
2024/02/10 07:16:33;;;;;;;2.67;1.13;;;;;;;6.05;100.00;97112.28;4979867;28;20031;-95
2024/02/10 07:18:59;;;;;;;7.68;1.35;;;;;;;6.12;100.00;97123.56;4956982;29;20023;-95
2024/02/10 07:21:25;;;;;;;3.40;1.20;;;;;;;5.99;100.00;97114.47;4957273;28;20031;-95
2024/02/10 07:23:51;;;;;;;4.15;1.10;;;;;;;5.98;100.00;97128.22;4956992;29;20155;-96
2024/02/10 07:26:20;;;;;;;5.07;1.13;;;;;;;6.00;100.00;97120.41;4957164;29;20039;-95
2024/02/10 07:28:51;;;;;;;4.43;1.25;;;;;;;5.97;100.00;97126.63;4956751;28;20026;-94
2024/02/10 07:31:17;;;;;;;3.27;1.00;;;;;;;5.96;100.00;97125.00;4977340;28;20290;-95
2024/02/10 07:33:47;;;;;;;5.68;1.10;;;;;;;5.97;100.00;97120.66;4971173;28;20280;-94
2024/02/10 07:36:15;;;;;;;3.75;1.20;;;;;;;5.96;100.00;97130.09;4963687;29;20031;-95
2024/02/10 07:38:41;;;;;;;5.82;1.23;;;;;;;5.94;100.00;97132.00;4959736;29;20047;-96
2024/02/10 07:41:06;;;;;;;6.80;1.48;;;;;;;5.96;100.00;97139.56;4977311;28;20083;-95
2024/02/10 07:43:32;;;;;;;6.50;1.40;;;;;;;6.00;100.00;97139.13;4976134;29;20038;-95
2024/02/10 07:45:58;;;;;;;3.97;1.35;;;;;;;5.93;100.00;97134.69;4947507;29;20119;-95
2024/02/10 07:48:24;;;;;;;7.47;1.50;;;;;;;5.90;100.00;97140.91;4967607;28;20023;-95
2024/02/10 07:50:52;;;;;;;4.13;1.50;;;;;;;5.94;100.00;97157.59;4977553;28;20038;-96
2024/02/10 07:53:18;;;;;;;4.03;1.10;;;;;;;5.88;100.00;97147.91;4961227;29;20034;-95
2024/02/10 07:55:46;;;;;;;6.30;1.13;;;;;;;5.89;100.00;97144.38;4956749;29;20024;-96
2024/02/10 08:01:06;;;;;;;3.08;1.02;;;;;;;5.96;100.00;97149.78;5718055;23;20109;-95
2024/02/10 08:03:32;;;;;;;2.88;1.27;;;;;;;5.98;100.00;97148.69;4962546;28;20035;-96
2024/02/10 08:05:58;;;;;;;2.92;1.25;;;;;;;6.07;100.00;97157.31;4960066;29;20034;-96
2024/02/10 08:30:36;;;;;;;6.30;1.13;;;;;;;6.59;100.00;97167.84;5727479;23;20036;-96
2024/02/10 08:33:02;;;;;;;9.60;1.15;;;;;;;6.75;100.00;97181.75;4923318;29;20040;-96
2024/02/10 08:35:28;;;;;;;3.85;1.30;;;;;;;6.84;100.00;97183.47;4920725;29;20040;-95
2024/02/10 08:37:54;;;;;;;6.97;1.73;;;;;;;6.88;100.00;97178.84;4914190;29;20025;-95
2024/02/10 08:40:20;;;;;;;5.30;1.85;;;;;;;7.01;100.00;97181.88;4893485;29;20437;-95
2024/02/10 08:42:59;;;;;;;5.47;1.15;;;;;;;7.06;100.00;97172.00;4909696;29;20033;-95
2024/02/10 08:45:28;;;;;;;5.30;1.80;;;;;;;7.14;100.00;97177.19;4916196;29;20043;-95
2024/02/10 08:47:53;;;;;;;6.05;1.58;;;;;;;7.28;100.00;97178.44;4892176;29;20803;-96
2024/02/10 08:50:22;;;;;;;4.90;1.75;;;;;;;7.36;100.00;97175.91;4891185;29;20280;-95
2024/02/10 08:52:47;;;;;;;4.65;1.45;;;;;;;7.45;100.00;97174.25;4900837;29;20064;-94
2024/02/10 08:55:14;;;;;;;4.10;1.45;;;;;;;7.61;100.00;97183.84;4886881;29;20089;-95
2024/02/10 08:57:41;;;;;;;6.80;1.63;;;;;;;7.74;100.00;97191.13;4900979;29;20024;-95
2024/02/10 09:00:08;;;;;;;4.32;1.40;;;;;;;7.81;100.00;97185.25;4904109;29;20091;-94
2024/02/10 09:02:34;;;;;;;6.30;3.88;;;;;;;7.87;100.00;97183.84;4888763;29;20436;-95
2024/02/10 09:04:59;;;;;;;7.35;1.88;;;;;;;8.00;100.00;97189.38;4890045;29;20025;-92
2024/02/10 09:07:25;;;;;;;6.68;1.00;;;;;;;8.23;100.00;97183.72;4893023;29;20085;-95
2024/02/10 09:09:50;;;;;;;3.42;1.20;;;;;;;8.14;100.00;97175.16;4889217;29;20029;-94
2024/02/10 09:12:16;;;;;;;4.63;1.60;;;;;;;8.69;100.00;97185.06;4897836;29;20076;-94
2024/02/10 09:14:42;;;;;;;7.07;1.45;;;;;;;9.22;100.00;97185.66;4903011;29;20028;-93
2024/02/10 09:17:17;;;;;;;8.48;1.50;;;;;;;9.59;100.00;97185.16;4901978;29;20021;-96
2024/02/10 09:19:42;;;;;;;6.30;1.05;;;;;;;9.71;100.00;97192.56;4901602;29;20036;-94
2024/02/10 09:22:09;;;;;;;4.97;1.20;;;;;;;9.74;100.00;97190.47;4895412;29;20080;-94
2024/02/10 09:24:35;;;;;;;3.70;1.15;;;;;;;10.35;100.00;97187.47;4900378;29;20511;-93
2024/02/10 09:27:00;;;;;;;4.75;1.20;;;;;;;10.64;100.00;97192.81;4900959;29;20056;-94
2024/02/10 09:29:26;;;;;;;7.85;1.30;;;;;;;11.55;100.00;97183.53;4900442;29;20031;-93
2024/02/10 09:31:52;;;;;;;6.78;1.08;;;;;;;12.63;100.00;97186.63;4898218;29;20068;-94
2024/02/10 09:34:20;;;;;;;4.88;1.10;;;;;;;13.75;100.00;97183.56;4898960;29;20036;-96
2024/02/10 09:36:47;;;;;;;7.47;1.00;;;;;;;13.73;100.00;97187.34;4888383;29;20043;-95
2024/02/10 09:39:20;;;;;;;10.07;1.40;;;;;;;13.85;100.00;97188.41;4888148;29;20043;-95
2024/02/10 09:41:47;;;;;;;7.32;1.20;;;;;;;15.09;96.69;97187.63;4892956;29;20025;-95
2024/02/10 09:44:16;;;;;;;4.20;0.90;;;;;;;15.20;92.41;97197.47;4891844;29;20384;-95
2024/02/10 09:46:42;;;;;;;8.65;1.23;;;;;;;15.55;90.63;97194.69;4882805;29;20498;-95
2024/02/10 09:49:09;;;;;;;8.15;1.05;;;;;;;14.40;94.70;97191.94;4900931;29;20025;-94
2024/02/10 09:51:39;;;;;;;8.82;1.10;;;;;;;13.07;100.00;97193.53;4901133;29;20048;-95
2024/02/10 09:54:05;;;;;;;10.45;1.02;;;;;;;13.57;100.00;97197.00;4890574;29;20088;-95
2024/02/10 09:56:33;;;;;;;5.93;1.00;;;;;;;14.05;100.00;97198.94;4903798;29;20047;-96
2024/02/10 09:58:59;;;;;;;8.43;1.10;;;;;;;14.06;100.00;97197.94;4905820;29;20052;-95
2024/02/10 10:01:37;;;;;;;8.15;1.27;;;;;;;13.61;100.00;97190.44;5170317;23;20044;-95
2024/02/10 10:04:03;;;;;;;11.82;1.13;;;;;;;13.00;100.00;97200.41;4885463;29;20025;-95
2024/02/10 10:09:08;;;;;;;3.78;1.50;;;;;;;12.92;100.00;97185.78;5190269;23;20052;-96
2024/02/10 10:11:38;;;;;;;10.65;1.20;;;;;;;12.20;100.00;97189.88;4916772;29;20088;-95
2024/02/10 10:14:03;;;;;;;7.50;1.45;;;;;;;11.65;100.00;97192.81;4920022;29;20024;-96
2024/02/10 10:16:29;;;;;;;6.47;0.82;;;;;;;11.55;100.00;97193.84;4919544;29;20017;-95
2024/02/10 10:18:55;;;;;;;5.43;1.38;;;;;;;11.13;100.00;97202.88;4904038;29;20096;-95
2024/02/10 10:21:21;;;;;;;5.95;1.17;;;;;;;11.07;100.00;97207.91;4901740;29;20024;-96
2024/02/10 10:23:46;;;;;;;7.78;1.58;;;;;;;11.28;100.00;97199.56;4902236;29;20481;-96
2024/02/10 10:26:12;;;;;;;8.38;1.27;;;;;;;11.37;100.00;97195.94;4905022;29;20033;-95
2024/02/10 10:28:41;;;;;;;9.18;0.90;;;;;;;11.54;100.00;97191.47;4904263;29;20036;-96
2024/02/10 10:31:07;;;;;;;10.57;1.38;;;;;;;11.66;100.00;97191.84;4912545;29;20032;-96
2024/02/10 10:33:34;;;;;;;10.70;1.15;;;;;;;11.77;100.00;97196.56;4911879;29;20241;-96
2024/02/10 10:36:02;;;;;;;8.13;1.42;;;;;;;11.74;100.00;97207.28;4916437;29;20076;-96
2024/02/10 10:38:29;;;;;;;10.25;1.83;;;;;;;12.17;100.00;97195.41;4915340;29;20084;-96
2024/02/10 10:40:56;;;;;;;7.93;2.00;;;;;;;12.74;100.00;97200.91;4915131;29;20031;-96
2024/02/10 10:43:25;;;;;;;9.40;1.58;;;;;;;13.13;100.00;97197.16;4915855;29;20036;-96
2024/02/10 10:45:51;;;;;;;9.10;1.75;;;;;;;13.42;100.00;97215.19;4915399;29;20029;-96
2024/02/10 10:48:16;;;;;;;11.73;1.92;;;;;;;12.71;100.00;97206.47;4915723;29;20032;-96
2024/02/10 10:50:42;;;;;;;7.50;1.30;;;;;;;11.63;100.00;97207.69;4917697;29;20036;-96
2024/02/10 10:53:12;;;;;;;17.50;2.40;;;;;;;11.31;100.00;97217.28;4917211;29;20118;-95
2024/02/10 10:55:53;;;;;;;6.15;1.33;;;;;;;11.55;100.00;97206.75;4917487;29;20031;-96
2024/02/10 10:58:24;;;;;;;10.00;1.45;;;;;;;11.95;100.00;97207.44;4918177;29;20276;-96
2024/02/10 11:00:52;;;;;;;7.00;0.90;;;;;;;11.84;100.00;97205.25;4918713;29;20467;-96
2024/02/10 11:03:18;;;;;;;7.22;1.35;;;;;;;11.96;100.00;97208.22;4918779;29;20025;-96
2024/02/10 11:05:49;;;;;;;6.32;1.38;;;;;;;12.23;100.00;97195.69;4918760;29;20053;-96
2024/02/10 11:08:25;;;;;;;8.97;1.50;;;;;;;12.03;100.00;97203.16;4919503;29;20025;-95
2024/02/10 11:10:58;;;;;;;10.77;1.60;;;;;;;12.41;100.00;97204.69;4919546;29;20033;-96
2024/02/10 11:13:28;;;;;;;9.23;2.00;;;;;;;12.08;100.00;97200.84;4920465;29;20041;-95
2024/02/10 11:16:14;;;;;;;7.25;1.42;;;;;;;11.87;100.00;97199.75;4920327;29;20031;-96
2024/02/10 11:18:44;;;;;;;12.55;1.80;;;;;;;11.39;100.00;97200.91;4920069;29;20039;-96
2024/02/10 11:21:18;;;;;;;12.55;1.88;;;;;;;11.48;100.00;97199.88;4918674;29;20036;-96
2024/02/10 11:23:59;;;;;;;7.70;1.58;;;;;;;11.47;100.00;97204.25;4919580;29;20012;-96
2024/02/10 11:26:29;;;;;;;7.60;1.33;;;;;;;10.81;100.00;97205.66;4919620;29;20072;-96
2024/02/10 11:29:07;;;;;;;11.05;1.75;;;;;;;11.21;100.00;97198.63;4919743;29;20042;-96
2024/02/10 11:31:39;;;;;;;22.02;2.38;;;;;;;10.79;100.00;97198.06;4920422;29;20053;-96
2024/02/10 11:34:11;;;;;;;14.25;1.52;;;;;;;11.08;100.00;97210.31;4919592;29;20035;-95
2024/02/10 11:36:38;;;;;;;13.02;1.60;;;;;;;11.77;100.00;97194.00;4919771;29;20024;-96
2024/02/10 11:39:09;;;;;;;10.45;1.45;;;;;;;11.53;100.00;97193.25;4919627;29;20040;-96
2024/02/10 11:41:39;;;;;;;13.13;1.73;;;;;;;11.83;100.00;97195.09;4919786;29;20021;-96
2024/02/10 11:44:05;;;;;;;12.73;2.75;;;;;;;11.75;100.00;97190.78;4919878;29;20029;-96
2024/02/10 11:46:31;;;;;;;11.52;2.15;;;;;;;11.67;100.00;97193.44;4920010;29;20033;-96
2024/02/10 11:49:00;;;;;;;17.58;2.25;;;;;;;11.52;100.00;97185.66;4920759;29;20053;-96
2024/02/10 11:51:31;;;;;;;15.88;1.83;;;;;;;11.98;100.00;97176.06;4920674;29;20012;-96
2024/02/10 11:53:57;;;;;;;12.38;1.45;;;;;;;12.04;100.00;97179.72;4921174;29;20110;-96
2024/02/10 11:56:25;;;;;;;15.45;1.90;;;;;;;11.84;100.00;97174.22;4920845;29;20035;-96
2024/02/10 11:58:51;;;;;;;7.93;1.38;;;;;;;12.23;100.00;97193.09;4921764;29;20061;-96
2024/02/10 12:01:17;;;;;;;15.77;2.22;;;;;;;11.75;100.00;97186.44;4921147;29;20032;-96
2024/02/10 12:03:43;;;;;;;13.38;1.58;;;;;;;11.70;100.00;97185.34;4921157;29;20020;-96
2024/02/10 21:41:17;;;;;;;31.42;6.63;;;;;;;7.58;100.00;97255.97;5939082;23;20070;-96